Time;durP1;ratioP1;P1;durP2;ratioP2;P2;SDS_P1;SDS_P2;PMS_P1;PMS_P2;Temp;Humidity;BMP_temperature;BMP_pressure;BME280_temperature;BME280_humidity;BME280_pressure;Samples;Min_cycle;Max_cycle;Signal;HPM_P1;HPM_P2
2023/05/23 00:00:22;;;;;;;226.90;72.88;;;;;;;19.41;49.24;101097.81;5050092;28;20392;-73
2023/05/23 00:02:48;;;;;;;167.35;64.63;;;;;;;19.41;49.47;101103.13;5043240;28;20496;-73
2023/05/23 00:05:14;;;;;;;171.82;65.25;;;;;;;19.41;49.31;101096.94;5049384;28;20040;-74
2023/05/23 00:07:39;;;;;;;160.95;65.53;;;;;;;19.41;49.63;101086.34;5036549;28;20145;-74
2023/05/23 00:10:05;;;;;;;164.10;64.90;;;;;;;19.41;49.06;101091.66;5064690;28;20020;-73
2023/05/23 00:12:32;;;;;;;167.55;64.50;;;;;;;19.40;49.31;101081.97;5048700;28;20025;-74
2023/05/23 00:14:58;;;;;;;173.85;65.20;;;;;;;19.40;49.71;101079.31;5052587;28;20216;-74
2023/05/23 00:17:24;;;;;;;181.90;66.88;;;;;;;19.39;48.95;101081.13;5037836;28;20482;-74
2023/05/23 00:19:49;;;;;;;165.38;63.95;;;;;;;19.38;49.15;101075.91;5053193;28;20103;-74
2023/05/23 00:22:15;;;;;;;165.13;64.55;;;;;;;19.40;49.50;101076.69;5050907;28;20104;-74
2023/05/23 00:24:40;;;;;;;169.43;64.88;;;;;;;19.40;49.51;101072.25;5066720;22;20102;-70
2023/05/23 00:27:06;;;;;;;168.15;64.28;;;;;;;19.39;49.49;101070.53;5031149;28;20102;-69
2023/05/23 00:29:31;;;;;;;163.23;65.28;;;;;;;19.39;48.69;101067.88;5067669;28;20050;-70
2023/05/23 00:31:57;;;;;;;169.55;64.65;;;;;;;19.40;48.57;101066.09;5057540;28;20497;-70
2023/05/23 00:34:22;;;;;;;172.60;65.38;;;;;;;19.39;48.63;101065.22;5053677;28;20021;-70
2023/05/23 00:36:49;;;;;;;154.43;61.20;;;;;;;19.39;49.16;101059.94;5035447;28;20025;-70
2023/05/23 00:39:20;;;;;;;163.80;64.15;;;;;;;19.39;49.37;101056.44;5071023;28;20111;-70
2023/05/23 00:41:47;;;;;;;171.60;65.60;;;;;;;19.39;49.47;101052.00;5048110;28;20131;-70
2023/05/23 00:44:12;;;;;;;183.77;66.95;;;;;;;19.39;49.25;101054.63;5040156;28;20051;-70
2023/05/23 00:46:38;;;;;;;168.20;64.35;;;;;;;19.39;48.76;101041.41;5052748;28;20048;-70
2023/05/23 00:49:03;;;;;;;175.05;64.60;;;;;;;19.38;49.42;101041.47;5049015;28;20020;-70
2023/05/23 00:51:30;;;;;;;162.57;63.67;;;;;;;19.39;49.23;101041.41;5055610;28;20027;-70
2023/05/23 00:53:55;;;;;;;169.65;65.07;;;;;;;19.39;49.52;101046.69;5051879;28;20055;-70
2023/05/23 00:56:20;;;;;;;168.10;65.35;;;;;;;19.38;49.26;101050.25;5046553;28;20475;-70
2023/05/23 00:58:46;;;;;;;164.23;63.08;;;;;;;19.39;48.98;101054.63;5065342;28;20039;-70
2023/05/23 01:01:11;;;;;;;160.77;63.00;;;;;;;19.39;48.91;101045.84;5055712;28;20452;-68
2023/05/23 01:03:37;;;;;;;164.77;64.13;;;;;;;19.38;49.13;101046.78;5041050;28;20135;-71
2023/05/23 01:06:02;;;;;;;165.35;63.78;;;;;;;19.37;49.12;101032.69;5050289;28;20116;-70
2023/05/23 01:08:28;;;;;;;165.75;65.22;;;;;;;19.36;49.06;101036.25;5052220;28;20104;-70
2023/05/23 01:10:55;;;;;;;166.65;64.78;;;;;;;19.37;49.56;101031.81;5061682;28;20108;-71
2023/05/23 01:13:40;;;;;;;167.40;65.22;;;;;;;19.38;48.96;101039.66;5037593;28;20521;-70
2023/05/23 01:16:29;;;;;;;158.65;63.05;;;;;;;19.36;48.78;101033.59;5059001;28;20500;-70
2023/05/23 01:18:59;;;;;;;175.38;66.80;;;;;;;19.36;48.96;101025.66;5035720;28;20040;-70
2023/05/23 01:21:25;;;;;;;165.25;65.07;;;;;;;19.36;49.58;101030.97;5054961;28;20025;-70
2023/05/23 01:24:14;;;;;;;166.05;63.65;;;;;;;19.36;48.95;101025.66;5050278;28;20055;-70
2023/05/23 01:27:07;;;;;;;167.90;66.75;;;;;;;19.35;48.98;101016.00;5052451;28;20651;-70
2023/05/23 01:29:59;;;;;;;166.30;64.28;;;;;;;19.35;48.75;101023.94;5046961;28;20032;-70
2023/05/23 01:32:26;;;;;;;163.27;64.18;;;;;;;19.34;48.96;101021.38;5038734;28;20112;-70
2023/05/23 01:34:52;;;;;;;162.85;63.80;;;;;;;19.34;48.63;101018.72;5023647;28;20037;-71
2023/05/23 01:37:18;;;;;;;165.52;63.63;;;;;;;19.33;49.09;101025.78;5052515;28;20024;-70
2023/05/23 01:39:44;;;;;;;166.90;64.70;;;;;;;19.34;48.07;101026.66;5048349;28;20035;-70
2023/05/23 01:42:09;;;;;;;168.02;63.85;;;;;;;19.34;48.44;101029.31;5060691;28;20025;-70
2023/05/23 01:44:35;;;;;;;157.77;65.10;;;;;;;19.33;47.91;101025.78;5035535;28;20027;-71
2023/05/23 01:47:06;;;;;;;164.40;64.45;;;;;;;19.32;48.29;101028.50;5053212;28;20074;-71
2023/05/23 01:49:32;;;;;;;164.93;64.88;;;;;;;19.32;47.91;101033.81;5063570;28;20128;-71
2023/05/23 01:52:00;;;;;;;194.50;70.18;;;;;;;19.33;48.18;101035.53;5045704;28;20413;-70
2023/05/23 01:54:25;;;;;;;165.88;63.83;;;;;;;19.32;47.62;101033.81;5052153;28;20497;-71
2023/05/23 01:56:50;;;;;;;165.57;64.78;;;;;;;19.31;48.21;101038.25;5051746;28;20029;-70
2023/05/23 01:59:16;;;;;;;181.80;68.85;;;;;;;19.32;48.51;101036.44;5060267;28;20054;-70
2023/05/23 02:01:41;;;;;;;174.05;65.55;;;;;;;19.32;47.93;101034.69;5050084;28;20440;-69
2023/05/23 02:04:07;;;;;;;185.90;69.00;;;;;;;19.32;48.08;101028.50;5044885;28;20178;-71
2023/05/23 02:06:32;;;;;;;166.23;66.03;;;;;;;19.31;47.97;101035.59;5046743;28;20020;-70
2023/05/23 02:08:57;;;;;;;196.57;69.13;;;;;;;19.32;48.55;101034.69;5059251;28;20036;-70
2023/05/23 02:11:23;;;;;;;166.82;67.13;;;;;;;19.32;48.07;101033.81;5050399;28;20035;-70
2023/05/23 02:13:48;;;;;;;165.98;64.30;;;;;;;19.31;48.10;101027.66;5051942;28;20021;-70
2023/05/23 02:16:13;;;;;;;168.25;66.75;;;;;;;19.31;48.26;101037.41;5052382;28;20446;-71
2023/05/23 02:18:39;;;;;;;172.45;65.45;;;;;;;19.31;48.00;101027.66;5044904;28;20017;-70
2023/05/23 02:21:04;;;;;;;170.45;67.03;;;;;;;19.32;48.22;101045.28;5056019;28;20025;-70
2023/05/23 02:23:30;;;;;;;168.05;65.22;;;;;;;19.30;47.66;101036.53;5035742;28;20009;-71
2023/05/23 02:25:56;;;;;;;167.10;66.00;;;;;;;19.29;48.21;101037.44;5050147;28;20113;-71
2023/05/23 02:28:21;;;;;;;171.80;66.28;;;;;;;19.30;47.94;101036.53;5034417;28;20036;-71
2023/05/23 02:30:46;;;;;;;167.32;65.25;;;;;;;19.30;48.04;101051.56;5059863;28;20028;-70
2023/05/23 02:33:12;;;;;;;167.02;65.63;;;;;;;19.28;48.74;101049.00;5053025;28;20036;-71
2023/05/23 02:35:37;;;;;;;159.68;63.95;;;;;;;19.29;47.73;101058.63;5030009;28;20025;-71
2023/05/23 02:38:02;;;;;;;163.93;63.55;;;;;;;19.28;48.28;101049.00;5058345;28;20081;-71
2023/05/23 02:40:28;;;;;;;167.63;65.22;;;;;;;19.27;47.83;101049.94;5064553;28;20401;-71
2023/05/23 02:42:56;;;;;;;167.68;65.38;;;;;;;19.28;48.64;101049.00;5053080;28;20051;-71
2023/05/23 02:45:21;;;;;;;161.23;63.13;;;;;;;19.27;47.98;101047.28;5044564;28;20027;-70
2023/05/23 02:47:46;;;;;;;163.30;64.40;;;;;;;19.26;47.53;101045.56;5023508;28;20020;-70
2023/05/23 02:50:12;;;;;;;166.25;66.45;;;;;;;19.28;47.41;101050.78;5053464;28;20028;-71
2023/05/23 02:52:37;;;;;;;209.18;73.25;;;;;;;19.27;47.66;101052.56;5051467;28;20025;-70
2023/05/23 02:55:03;;;;;;;167.95;64.63;;;;;;;19.26;48.43;101056.16;5035356;28;20397;-70
2023/05/23 02:57:28;;;;;;;165.98;65.00;;;;;;;19.25;48.13;101049.13;5057121;28;20025;-70
2023/05/23 02:59:53;;;;;;;169.90;66.82;;;;;;;19.25;47.76;101049.13;5059641;28;20036;-70
2023/05/23 03:02:20;;;;;;;167.63;64.53;;;;;;;19.25;47.74;101049.13;5051794;28;20028;-70
2023/05/23 03:04:45;;;;;;;167.35;65.65;;;;;;;19.24;47.91;101056.22;5052687;28;20025;-70
2023/05/23 03:07:12;;;;;;;166.40;63.92;;;;;;;19.23;48.47;101056.28;5068023;28;20028;-71
2023/05/23 03:09:38;;;;;;;166.25;65.60;;;;;;;19.23;48.47;101056.28;5051566;28;20016;-70
2023/05/23 03:12:04;;;;;;;166.57;65.75;;;;;;;19.23;48.38;101057.16;5048150;28;20123;-70
2023/05/23 03:14:29;;;;;;;164.18;64.80;;;;;;;19.23;48.09;101053.66;5049779;28;20021;-70
2023/05/23 03:16:54;;;;;;;166.65;64.32;;;;;;;19.23;48.40;101053.66;5048087;28;20025;-70
2023/05/23 03:19:20;;;;;;;165.20;63.35;;;;;;;19.21;48.52;101051.06;5050750;28;20448;-70
2023/05/23 03:21:45;;;;;;;168.02;65.53;;;;;;;19.22;48.44;101054.56;5050200;28;20060;-70
2023/05/23 03:24:10;;;;;;;182.73;67.72;;;;;;;19.22;48.44;101051.94;5049183;28;20059;-70
2023/05/23 03:26:36;;;;;;;165.00;64.95;;;;;;;19.21;48.30;101047.56;5050993;28;20048;-70
2023/05/23 03:29:01;;;;;;;170.45;66.00;;;;;;;19.22;47.79;101051.94;5043912;28;20021;-70
2023/05/23 03:31:26;;;;;;;166.10;64.60;;;;;;;19.21;48.01;101052.84;5053404;28;20469;-70
2023/05/23 03:33:52;;;;;;;187.25;66.80;;;;;;;19.20;48.10;101046.69;5050650;28;20063;-70
2023/05/23 03:36:18;;;;;;;165.13;64.90;;;;;;;19.20;48.01;101045.84;5052871;28;20025;-70
2023/05/23 03:38:43;;;;;;;159.13;63.40;;;;;;;19.20;47.41;101040.56;5051297;28;20037;-70
2023/05/23 03:41:08;;;;;;;168.02;64.32;;;;;;;19.20;47.91;101043.22;5053324;28;20108;-70
2023/05/23 03:43:34;;;;;;;168.88;64.05;;;;;;;19.20;47.39;101041.41;5060347;28;20052;-70
2023/05/23 03:45:59;;;;;;;157.68;63.72;;;;;;;19.20;48.01;101043.22;5052593;28;20051;-70
2023/05/23 03:48:24;;;;;;;162.48;63.65;;;;;;;19.20;47.73;101036.13;5055296;28;20077;-70
2023/05/23 03:50:50;;;;;;;168.73;65.70;;;;;;;19.19;48.17;101036.19;5051180;28;20037;-70
2023/05/23 03:53:15;;;;;;;180.20;66.47;;;;;;;19.20;48.67;101035.25;5053390;28;20025;-70
2023/05/23 03:55:41;;;;;;;167.88;65.75;;;;;;;19.18;48.03;101040.63;5052987;28;20021;-71
2023/05/23 03:58:06;;;;;;;165.93;64.18;;;;;;;19.20;48.45;101048.50;5058100;28;20066;-70
2023/05/23 04:00:31;;;;;;;163.27;63.53;;;;;;;19.20;48.85;101037.91;5059267;28;20418;-70
2023/05/23 04:02:57;;;;;;;175.10;66.40;;;;;;;19.18;48.49;101037.13;5040975;28;20421;-70
2023/05/23 04:05:22;;;;;;;175.30;67.53;;;;;;;19.19;47.92;101044.13;5049826;28;20541;-70
2023/05/23 04:07:48;;;;;;;177.63;67.43;;;;;;;19.19;47.62;101049.44;5055773;28;20415;-70
2023/05/23 04:10:13;;;;;;;161.65;66.30;;;;;;;19.17;48.39;101044.22;5049290;28;20032;-71
2023/05/23 04:12:40;;;;;;;177.18;66.50;;;;;;;19.18;48.00;101043.28;5029877;28;20028;-70
2023/05/23 04:15:06;;;;;;;179.82;66.80;;;;;;;19.18;48.41;101047.69;5048032;28;20103;-70
2023/05/23 04:17:32;;;;;;;193.27;70.05;;;;;;;19.18;48.27;101048.59;5042113;28;20083;-70
2023/05/23 04:19:57;;;;;;;169.65;64.15;;;;;;;19.17;48.25;101049.50;5043573;28;20025;-70
2023/05/23 04:22:22;;;;;;;164.57;64.00;;;;;;;19.18;48.25;101053.00;5049512;28;20020;-70
2023/05/23 04:24:48;;;;;;;165.10;64.85;;;;;;;19.18;48.49;101055.66;5047313;28;20379;-70
2023/05/23 04:27:13;;;;;;;166.48;64.32;;;;;;;19.17;48.42;101056.56;5055102;28;20024;-70
2023/05/23 04:29:39;;;;;;;166.15;64.30;;;;;;;19.17;48.08;101057.44;5056873;28;20082;-70
2023/05/23 04:32:07;;;;;;;187.82;68.75;;;;;;;19.17;48.17;101067.16;5051412;28;20021;-71
2023/05/23 04:34:33;;;;;;;164.27;64.85;;;;;;;19.17;48.00;101065.38;5029199;28;20428;-71
2023/05/23 04:37:01;;;;;;;168.25;66.78;;;;;;;19.18;48.26;101066.22;5063804;28;20020;-71
2023/05/23 04:39:28;;;;;;;168.07;65.82;;;;;;;19.17;48.33;101068.03;5053892;28;20485;-71
2023/05/23 04:41:54;;;;;;;176.70;67.20;;;;;;;19.17;47.96;101064.50;5050599;28;20493;-71
2023/05/23 04:44:19;;;;;;;176.32;67.75;;;;;;;19.16;48.42;101060.16;5049857;28;20031;-71
2023/05/23 04:46:45;;;;;;;162.80;64.68;;;;;;;19.17;48.19;101061.88;5062355;28;20024;-71
2023/05/23 04:49:11;;;;;;;169.90;65.32;;;;;;;19.17;48.69;101056.56;5052561;28;20025;-71
2023/05/23 04:51:37;;;;;;;166.82;64.75;;;;;;;19.18;48.02;101066.22;5050429;28;20428;-70
2023/05/23 04:54:02;;;;;;;171.98;65.38;;;;;;;19.17;47.52;101067.16;5049014;28;20025;-70
2023/05/23 04:56:28;;;;;;;169.27;65.75;;;;;;;19.17;47.73;101067.16;5042839;28;20115;-70
2023/05/23 04:58:53;;;;;;;162.55;63.33;;;;;;;19.17;47.35;101067.16;5055944;28;20041;-70
2023/05/23 05:01:19;;;;;;;168.18;67.70;;;;;;;19.16;47.50;101071.59;5048375;28;20017;-70
2023/05/23 05:03:44;;;;;;;168.45;64.35;;;;;;;19.16;48.32;101066.31;5051447;28;20098;-70
2023/05/23 05:06:10;;;;;;;168.60;67.18;;;;;;;19.16;48.70;101071.59;5040344;28;20024;-70
2023/05/23 05:08:35;;;;;;;163.30;65.93;;;;;;;19.16;48.38;101063.66;5054677;28;20052;-71
2023/05/23 05:11:01;;;;;;;167.50;64.57;;;;;;;19.15;48.27;101069.88;5042808;28;20056;-70
2023/05/23 05:13:26;;;;;;;168.73;65.55;;;;;;;19.17;48.18;101067.16;5056739;28;20472;-71
2023/05/23 05:15:51;;;;;;;178.57;88.90;;;;;;;19.16;48.86;101070.75;5055992;28;20425;-71
2023/05/23 05:18:17;;;;;;;170.30;66.25;;;;;;;19.15;48.77;101069.88;5053590;28;20515;-70
2023/05/23 05:20:42;;;;;;;176.57;68.25;;;;;;;19.16;48.89;101065.47;5051657;28;20474;-70
2023/05/23 05:23:08;;;;;;;171.90;65.43;;;;;;;19.16;48.11;101076.06;5068224;28;20104;-70
2023/05/23 05:25:35;;;;;;;165.18;64.25;;;;;;;19.16;48.81;101076.06;5025912;28;20493;-70
2023/05/23 05:28:10;;;;;;;169.25;66.75;;;;;;;19.16;48.17;101070.75;5056441;28;20534;-70
2023/05/23 05:30:36;;;;;;;179.30;67.20;;;;;;;19.16;48.42;101068.97;5053916;28;20131;-70
2023/05/23 05:33:03;;;;;;;170.25;64.05;;;;;;;19.16;48.75;101076.91;5044626;28;20052;-70
2023/05/23 05:35:30;;;;;;;166.57;65.05;;;;;;;19.17;48.04;101073.34;5052072;28;20028;-70
2023/05/23 05:37:55;;;;;;;169.65;64.80;;;;;;;19.15;48.39;101069.88;5042282;28;20081;-70
2023/05/23 05:40:21;;;;;;;172.80;64.53;;;;;;;19.17;48.62;101077.75;5044394;28;20100;-70
2023/05/23 05:42:46;;;;;;;170.35;66.35;;;;;;;19.15;48.71;101076.97;5043961;28;20102;-70
2023/05/23 05:45:12;;;;;;;168.00;65.35;;;;;;;19.16;48.63;101076.06;5041338;28;20025;-70
2023/05/23 05:47:37;;;;;;;164.63;62.75;;;;;;;19.16;48.45;101086.66;5026925;28;20465;-70
2023/05/23 05:50:08;;;;;;;160.27;65.00;;;;;;;19.17;48.35;101083.03;5029652;28;20089;-70
2023/05/23 05:52:37;;;;;;;179.07;65.85;;;;;;;19.16;47.59;101081.34;5042762;28;20123;-70
2023/05/23 05:55:03;;;;;;;165.68;63.10;;;;;;;19.17;47.73;101083.03;5046803;28;20037;-70
2023/05/23 05:57:29;;;;;;;180.43;76.57;;;;;;;19.16;47.16;101087.50;5039655;28;20025;-70
2023/05/23 05:59:54;;;;;;;170.05;65.68;;;;;;;19.16;47.61;101091.94;5042556;28;20032;-70
2023/05/23 06:02:20;;;;;;;195.13;112.05;;;;;;;19.18;47.59;101090.06;5046006;28;20050;-69
2023/05/23 06:04:45;;;;;;;186.00;81.20;;;;;;;19.19;47.42;101091.78;5039850;28;20024;-70
2023/05/23 06:07:11;;;;;;;172.00;66.47;;;;;;;19.19;47.20;101091.78;5052571;28;20102;-71
2023/05/23 06:09:36;;;;;;;195.75;109.57;;;;;;;19.19;47.39;101102.38;5056786;28;20025;-71
2023/05/23 06:12:02;;;;;;;169.68;65.45;;;;;;;19.20;47.66;101104.13;5042902;28;20115;-70
2023/05/23 06:14:27;;;;;;;162.63;66.75;;;;;;;19.20;47.86;101104.13;5049766;28;20067;-70
2023/05/23 06:16:52;;;;;;;168.38;69.78;;;;;;;19.20;47.61;101104.13;5053630;28;20046;-71
2023/05/23 06:19:18;;;;;;;173.35;71.00;;;;;;;19.19;47.59;101105.03;5055266;28;20033;-71
2023/05/23 06:21:43;;;;;;;165.40;63.90;;;;;;;19.19;47.10;101112.97;5050686;28;20035;-70
2023/05/23 06:24:08;;;;;;;212.25;72.90;;;;;;;19.19;47.59;101108.53;5046750;28;20024;-70
2023/05/23 06:26:36;;;;;;;192.95;69.18;;;;;;;19.19;46.89;101112.97;5039918;28;20036;-70
2023/05/23 06:29:01;;;;;;;178.40;66.57;;;;;;;19.18;47.17;101116.53;5066797;22;20099;-71
2023/05/23 06:31:26;;;;;;;172.60;65.35;;;;;;;19.15;47.21;101109.59;5053963;28;20025;-71
2023/05/23 06:33:53;;;;;;;168.30;65.13;;;;;;;19.16;47.16;101110.47;5031221;28;20052;-72
2023/05/23 06:36:18;;;;;;;171.25;64.93;;;;;;;19.16;47.53;101121.06;5028293;28;20425;-71
2023/05/23 06:38:43;;;;;;;169.25;65.43;;;;;;;19.16;47.67;101118.41;5039538;28;20083;-71
2023/05/23 06:41:09;;;;;;;169.43;64.80;;;;;;;19.15;47.38;101122.00;5051365;28;20039;-72
2023/05/23 06:43:34;;;;;;;173.35;64.22;;;;;;;19.15;47.62;101124.63;5053856;28;20393;-72
2023/05/23 06:46:00;;;;;;;173.73;64.03;;;;;;;19.15;47.87;101129.94;5039603;28;20104;-72
2023/05/23 06:48:25;;;;;;;179.32;65.68;;;;;;;19.16;47.41;101134.31;5053552;28;20100;-70
2023/05/23 06:50:50;;;;;;;182.55;67.18;;;;;;;19.15;47.65;101127.28;5026389;28;20047;-72
2023/05/23 06:53:17;;;;;;;168.65;64.25;;;;;;;19.15;48.08;101128.13;5018411;28;20029;-72
2023/05/23 06:55:42;;;;;;;172.05;65.90;;;;;;;19.16;47.88;101139.59;5061248;28;20023;-71
2023/05/23 06:58:08;;;;;;;168.93;63.25;;;;;;;19.15;47.92;101132.59;5034752;28;20048;-72
2023/05/23 07:00:33;;;;;;;172.35;64.88;;;;;;;19.16;47.71;101134.31;5023622;28;20024;-71
2023/05/23 07:03:00;;;;;;;180.32;65.85;;;;;;;19.16;47.55;101144.91;5033308;28;20064;-71
2023/05/23 07:05:27;;;;;;;170.23;65.50;;;;;;;19.15;47.33;101145.81;5043863;28;20111;-71
2023/05/23 07:07:52;;;;;;;171.77;65.57;;;;;;;19.14;47.10;101152.03;5049375;28;20025;-72
2023/05/23 07:10:18;;;;;;;176.23;66.20;;;;;;;19.15;47.68;101153.75;5041725;28;20544;-72
2023/05/23 07:12:44;;;;;;;171.32;65.80;;;;;;;19.15;47.04;101159.06;5026314;28;20036;-72
2023/05/23 07:15:10;;;;;;;173.50;67.10;;;;;;;19.15;47.57;101159.06;5040713;28;20029;-71
2023/05/23 07:17:35;;;;;;;179.63;65.65;;;;;;;19.17;47.42;101162.47;5007594;28;20035;-71
2023/05/23 07:20:01;;;;;;;176.55;64.78;;;;;;;19.17;47.72;101166.00;5037140;28;20029;-72
2023/05/23 07:22:27;;;;;;;165.75;63.88;;;;;;;19.20;47.58;101165.88;5008362;28;20023;-73
2023/05/23 07:24:52;;;;;;;177.68;64.97;;;;;;;19.23;47.32;101162.22;5039030;28;20052;-71
2023/05/23 07:27:17;;;;;;;170.82;63.55;;;;;;;19.25;47.08;101160.34;5023200;28;20033;-71
2023/05/23 07:29:43;;;;;;;181.30;67.15;;;;;;;19.30;47.28;101174.25;5041735;28;20087;-72
2023/05/23 07:32:08;;;;;;;180.65;89.50;;;;;;;19.36;47.07;101170.44;5043794;28;20064;-72
2023/05/23 07:34:33;;;;;;;179.43;66.80;;;;;;;19.40;46.75;101175.56;5010977;28;20033;-72
2023/05/23 07:36:59;;;;;;;178.55;64.25;;;;;;;19.46;46.84;101176.22;5028792;28;20025;-73
2023/05/23 07:39:26;;;;;;;172.15;64.45;;;;;;;19.49;46.59;101187.50;5023611;28;20040;-72
2023/05/23 07:41:51;;;;;;;170.30;63.58;;;;;;;19.53;46.52;101181.13;5042482;28;20103;-72
2023/05/23 07:44:17;;;;;;;193.85;67.03;;;;;;;19.56;46.54;101180.16;5033013;28;20107;-72
2023/05/23 07:46:43;;;;;;;178.32;65.22;;;;;;;19.60;46.18;101192.31;5040551;28;20369;-72
2023/05/23 07:49:08;;;;;;;185.25;66.05;;;;;;;19.64;46.23;101193.03;5046631;28;20033;-71
2023/05/23 07:51:33;;;;;;;187.13;66.55;;;;;;;19.67;46.17;101198.19;5044802;28;20116;-72
2023/05/23 07:53:59;;;;;;;187.75;67.00;;;;;;;19.69;46.64;101202.50;5014211;28;20040;-73
2023/05/23 07:56:25;;;;;;;166.73;62.88;;;;;;;19.72;46.59;101206.81;5034054;28;20021;-71
2023/05/23 07:58:50;;;;;;;168.95;64.43;;;;;;;19.72;46.14;101209.44;5046693;28;20037;-71
2023/05/23 08:01:17;;;;;;;181.95;65.97;;;;;;;19.70;46.74;101214.81;5026850;28;20033;-72
2023/05/23 08:03:42;;;;;;;183.65;67.18;;;;;;;19.68;46.32;101219.31;5021536;28;20620;-70
2023/05/23 08:06:08;;;;;;;160.95;63.70;;;;;;;19.68;46.49;101218.47;5029954;28;20043;-72
2023/05/23 08:08:33;;;;;;;182.20;66.40;;;;;;;19.68;46.48;101226.44;5015072;28;20024;-73
2023/05/23 08:10:58;;;;;;;172.15;65.53;;;;;;;19.67;46.49;101228.19;5012789;28;20029;-73
2023/05/23 08:13:24;;;;;;;163.80;65.07;;;;;;;19.67;46.21;101220.25;5007365;28;20047;-73
2023/05/23 08:15:49;;;;;;;173.35;65.70;;;;;;;19.71;46.63;101237.72;5041513;28;20025;-72
2023/05/23 08:18:15;;;;;;;168.20;63.72;;;;;;;19.73;45.95;101235.88;5030065;28;20033;-72
2023/05/23 08:20:41;;;;;;;174.80;64.88;;;;;;;19.76;45.87;101234.88;5044405;28;20410;-73
2023/05/23 08:23:06;;;;;;;165.18;64.05;;;;;;;19.77;46.29;101241.91;5026766;28;20034;-72
2023/05/23 08:25:32;;;;;;;172.90;64.43;;;;;;;19.75;46.68;101249.06;5028045;28;20024;-73
2023/05/23 08:27:57;;;;;;;168.32;64.63;;;;;;;19.71;46.61;101248.31;5034249;28;20032;-72
2023/05/23 08:30:24;;;;;;;166.02;62.60;;;;;;;19.68;46.80;101256.41;5029388;28;20032;-72
2023/05/23 08:32:50;;;;;;;179.95;65.57;;;;;;;19.67;47.10;101256.50;5012358;28;20029;-72
2023/05/23 08:35:16;;;;;;;167.68;63.95;;;;;;;19.62;47.31;101264.66;5042831;28;20540;-72
2023/05/23 08:37:41;;;;;;;175.68;65.30;;;;;;;19.61;47.58;101262.94;5029621;28;20111;-72
2023/05/23 08:40:17;;;;;;;168.57;65.13;;;;;;;19.59;47.63;101265.66;5043666;28;20422;-73
2023/05/23 08:42:43;;;;;;;168.05;64.15;;;;;;;19.57;47.59;101266.66;5034952;28;20100;-73
2023/05/23 08:45:09;;;;;;;176.43;64.85;;;;;;;19.55;47.48;101257.91;5007503;28;20108;-73
2023/05/23 08:47:36;;;;;;;170.60;64.90;;;;;;;19.53;47.53;101273.03;5027342;28;20028;-72
2023/05/23 08:50:06;;;;;;;167.60;64.07;;;;;;;19.50;47.05;101271.38;5031319;28;20082;-72
2023/05/23 08:52:32;;;;;;;168.55;63.80;;;;;;;19.49;47.44;101284.69;5032152;28;20037;-71
2023/05/23 08:54:59;;;;;;;188.10;66.20;;;;;;;19.46;47.37;101284.84;5048477;28;20052;-72
2023/05/23 08:57:25;;;;;;;171.63;64.95;;;;;;;19.46;47.61;101295.44;5045012;28;20032;-72
2023/05/23 08:59:51;;;;;;;166.75;63.80;;;;;;;19.43;47.08;101281.38;5041483;28;20369;-72
2023/05/23 09:02:17;;;;;;;197.85;69.47;;;;;;;19.42;46.87;101295.53;5017502;28;20366;-72
2023/05/23 09:04:42;;;;;;;177.98;66.15;;;;;;;19.40;47.62;101302.72;5029795;28;20029;-72
2023/05/23 09:07:08;;;;;;;165.32;63.65;;;;;;;19.40;47.03;101294.75;5031420;28;20082;-72
2023/05/23 09:09:34;;;;;;;169.40;63.15;;;;;;;19.38;47.35;101306.34;5033763;28;20025;-72
2023/05/23 09:12:02;;;;;;;185.95;65.10;;;;;;;19.36;47.44;101306.41;5034497;28;20028;-72
2023/05/23 09:14:30;;;;;;;183.30;66.30;;;;;;;19.34;47.45;101307.41;5046136;28;20037;-73
2023/05/23 09:17:00;;;;;;;179.45;64.55;;;;;;;19.34;47.32;101318.84;5014914;28;20561;-73
2023/05/23 09:19:25;;;;;;;185.13;65.65;;;;;;;19.31;47.11;101319.00;5037494;28;20024;-72
2023/05/23 09:21:52;;;;;;;184.50;66.68;;;;;;;19.30;47.05;101333.16;5032629;28;20032;-72
2023/05/23 09:24:18;;;;;;;185.30;66.28;;;;;;;19.29;47.33;101342.03;5041172;28;20424;-72
2023/05/23 09:26:46;;;;;;;169.35;63.60;;;;;;;19.28;47.44;101340.31;5028752;28;20105;-73
2023/05/23 09:29:11;;;;;;;180.48;66.13;;;;;;;19.27;47.25;101349.19;5056399;28;20024;-72
2023/05/23 09:31:37;;;;;;;181.90;65.90;;;;;;;19.25;47.07;101345.72;5044511;28;20021;-73
2023/05/23 09:34:02;;;;;;;175.27;64.90;;;;;;;19.26;47.33;101344.81;5031683;28;20029;-72
2023/05/23 09:36:33;;;;;;;166.93;63.20;;;;;;;19.28;47.50;101350.91;5046648;28;20032;-73
2023/05/23 09:39:03;;;;;;;185.38;67.18;;;;;;;19.28;47.32;101350.91;5037297;28;20037;-72
2023/05/23 09:41:30;;;;;;;190.75;66.05;;;;;;;19.28;47.46;101353.56;5037490;28;20107;-71
2023/05/23 09:43:55;;;;;;;193.00;67.85;;;;;;;19.28;47.62;101350.91;5039199;28;20045;-74
2023/05/23 09:46:21;;;;;;;166.35;62.95;;;;;;;19.30;47.28;101358.78;5026173;28;20406;-73
2023/05/23 09:48:51;;;;;;;166.85;64.80;;;;;;;19.29;47.16;101368.50;5040725;28;20120;-73
2023/05/23 09:51:21;;;;;;;163.68;63.22;;;;;;;19.30;47.16;101362.28;5043221;28;20363;-73
2023/05/23 09:53:47;;;;;;;165.88;63.72;;;;;;;19.30;47.22;101369.38;5037863;28;20059;-74
2023/05/23 09:56:14;;;;;;;164.20;63.90;;;;;;;19.30;46.98;101370.22;5009962;28;20053;-72
2023/05/23 09:58:39;;;;;;;170.98;64.07;;;;;;;19.30;47.58;101375.53;5028188;28;20033;-72
2023/05/23 10:01:08;;;;;;;164.60;63.00;;;;;;;19.31;47.49;101371.97;5046190;28;20105;-73
2023/05/23 10:03:48;;;;;;;159.68;62.13;;;;;;;19.33;46.84;101380.69;5049639;28;20055;-74
2023/05/23 10:06:22;;;;;;;166.30;63.75;;;;;;;19.34;46.70;101374.47;5027252;28;20123;-72
2023/05/23 10:08:57;;;;;;;;;;;;;;;19.34;47.36;101382.41;5030650;28;20078;-70
2023/05/23 10:11:34;;;;;;;163.80;62.75;;;;;;;19.36;46.97;101385.00;5046477;28;19913;-73
2023/05/23 10:14:06;;;;;;;169.18;64.22;;;;;;;19.35;47.51;101384.16;5048538;28;20020;-72
2023/05/23 10:16:50;;;;;;;168.00;63.03;;;;;;;19.35;46.94;101378.84;5047905;28;20013;-73
2023/05/23 10:19:37;;;;;;;164.52;63.40;;;;;;;19.34;46.71;101398.31;5042837;28;20021;-73
2023/05/23 10:22:06;;;;;;;168.10;63.53;;;;;;;19.34;46.89;101397.47;5051722;28;20411;-73
2023/05/23 10:24:31;;;;;;;168.38;63.70;;;;;;;19.33;46.76;101407.19;5037215;28;20099;-73
2023/05/23 10:26:57;;;;;;;165.77;62.75;;;;;;;19.33;46.80;101409.81;5011768;28;20129;-71
2023/05/23 10:29:23;;;;;;;167.07;63.45;;;;;;;19.34;46.52;101419.50;5013591;28;20501;-73
2023/05/23 10:31:50;;;;;;;158.50;62.53;;;;;;;19.35;47.13;101418.59;5029656;28;20097;-73
2023/05/23 10:34:21;;;;;;;204.13;70.45;;;;;;;19.38;46.78;101421.09;5047615;28;20020;-73
2023/05/23 10:36:58;;;;;;;170.13;64.30;;;;;;;19.41;46.75;101425.41;5062515;28;20436;-72
2023/05/23 10:39:50;;;;;;;164.57;64.18;;;;;;;19.46;46.31;101427.88;5036834;28;20046;-73
2023/05/23 10:42:25;;;;;;;168.90;65.93;;;;;;;19.49;46.74;101441.84;5042164;28;20039;-73
2023/05/23 10:44:50;;;;;;;167.35;64.25;;;;;;;19.52;45.98;101438.22;5041166;28;20410;-72
2023/05/23 10:47:26;;;;;;;171.02;64.43;;;;;;;19.50;46.13;101440.94;5031951;28;20028;-73
2023/05/23 10:49:53;;;;;;;167.50;63.97;;;;;;;19.51;46.64;101440.00;5052407;28;20033;-73
2023/05/23 10:52:20;;;;;;;169.35;65.18;;;;;;;19.51;46.19;101447.06;5053101;28;20401;-72
2023/05/23 10:54:53;;;;;;;160.77;63.97;;;;;;;19.54;46.17;101457.56;5033016;28;20044;-72
2023/05/23 10:57:20;;;;;;;164.68;63.13;;;;;;;19.56;46.01;101450.41;5031539;28;20459;-72
2023/05/23 10:59:46;;;;;;;177.70;66.45;;;;;;;19.62;46.21;101455.47;5017060;28;20104;-72